Time;durP1;ratioP1;P1;durP2;ratioP2;P2;SDS_P1;SDS_P2;PMS_P1;PMS_P2;Temp;Humidity;BMP_temperature;BMP_pressure;BME280_temperature;BME280_humidity;BME280_pressure;Samples;Min_cycle;Max_cycle;Signal;HPM_P1;HPM_P2
2020/12/13 00:00:45;;;;;;;133.43;52.03;;;;;;;0.96;87.52;95137.97;5056757;28;20033;-88
2020/12/13 00:03:11;;;;;;;103.28;47.20;;;;;;;0.78;88.51;95109.00;5056299;28;20136;-88
2020/12/13 00:05:38;;;;;;;108.97;47.22;;;;;;;1.07;88.28;95153.72;5056276;28;20119;-88
2020/12/13 00:08:04;;;;;;;119.55;53.33;;;;;;;1.29;87.64;95192.06;5056523;28;20033;-88
2020/12/13 00:10:30;;;;;;;108.93;49.40;;;;;;;0.75;87.58;95111.78;5056341;28;20416;-88
2020/12/13 00:12:55;;;;;;;99.82;48.92;;;;;;;1.34;88.23;95198.81;5056308;28;20032;-88
2020/12/13 00:15:21;;;;;;;100.38;49.53;;;;;;;0.88;87.97;95120.59;5056264;28;20070;-88
2020/12/13 00:17:47;;;;;;;90.55;44.72;;;;;;;0.95;87.11;95147.13;5056203;28;20021;-88
2020/12/13 00:23:34;;;;;;;72.93;43.28;;;;;;;0.81;87.83;95118.13;5057536;28;20075;-87
2020/12/13 00:25:59;;;;;;;78.72;42.80;;;;;;;0.78;87.44;95111.69;5056090;28;20048;-88
2020/12/13 00:28:25;;;;;;;112.53;42.83;;;;;;;1.38;87.20;95212.09;5056164;28;20040;-88
2020/12/13 00:30:51;;;;;;;94.28;45.92;;;;;;;0.82;87.13;95142.94;5055979;28;20120;-88
2020/12/13 00:33:16;;;;;;;76.13;42.67;;;;;;;0.92;87.44;95150.66;5055955;28;20025;-88
2020/12/13 00:35:42;;;;;;;78.70;43.75;;;;;;;1.10;86.81;95173.50;5056070;28;20068;-87
2020/12/13 00:38:07;;;;;;;108.00;47.00;;;;;;;0.66;87.72;95117.00;5055834;28;20032;-88
2020/12/13 00:40:33;;;;;;;83.13;41.53;;;;;;;1.05;87.09;95175.50;5055971;28;20432;-87
2020/12/13 00:42:58;;;;;;;81.97;42.55;;;;;;;0.88;87.14;95147.34;5055963;28;20071;-87
2020/12/13 00:45:24;;;;;;;93.07;44.10;;;;;;;1.08;86.92;95171.25;5055813;28;20032;-88
2020/12/13 00:47:50;;;;;;;80.95;42.63;;;;;;;0.83;86.98;95147.84;5057003;28;20085;-87
2020/12/13 00:50:15;;;;;;;79.07;43.22;;;;;;;0.85;86.78;95139.41;5055833;28;20107;-87
2020/12/13 00:52:41;;;;;;;84.20;42.33;;;;;;;0.96;86.97;95169.28;5055755;28;20025;-88
2020/12/13 00:55:06;;;;;;;88.80;45.08;;;;;;;1.41;87.16;95233.41;5055735;28;20044;-88
2020/12/13 00:57:31;;;;;;;85.72;41.55;;;;;;;0.89;87.08;95158.78;5055800;28;20028;-88
2020/12/13 00:59:57;;;;;;;124.82;48.50;;;;;;;1.16;87.22;95198.53;5055842;28;20428;-88
2020/12/13 01:02:23;;;;;;;87.63;43.88;;;;;;;1.18;87.76;95207.66;5059333;28;20191;-88
2020/12/13 01:04:48;;;;;;;100.47;47.65;;;;;;;0.92;87.24;95168.63;5059615;28;20056;-88
2020/12/13 01:07:14;;;;;;;96.43;46.20;;;;;;;0.98;87.09;95174.97;5059935;28;20032;-87
2020/12/13 01:09:40;;;;;;;88.80;44.30;;;;;;;0.83;87.20;95147.84;5059636;28;20025;-87
2020/12/13 01:12:05;;;;;;;101.82;46.85;;;;;;;0.92;87.05;95168.63;5059627;28;20040;-88
2020/12/13 01:14:31;;;;;;;62.40;33.55;;;;;;;1.04;87.31;95195.41;5059434;28;20416;-88
2020/12/13 01:16:56;;;;;;;61.58;31.40;;;;;;;1.05;86.96;95186.22;5059564;28;20063;-88
2020/12/13 01:19:25;;;;;;;66.10;31.25;;;;;;;0.98;86.80;95197.09;5059479;28;20027;-88
2020/12/13 01:21:51;;;;;;;48.42;27.83;;;;;;;0.75;87.57;95138.53;5059535;28;20039;-88
2020/12/13 01:24:17;;;;;;;47.67;29.48;;;;;;;0.67;86.59;95153.25;5059537;28;20021;-88
2020/12/13 01:26:43;;;;;;;50.42;29.00;;;;;;;0.70;87.54;95153.16;5059507;28;20112;-88
2020/12/13 01:29:08;;;;;;;49.85;28.58;;;;;;;0.92;86.54;95182.75;5059428;28;20381;-87
2020/12/13 01:31:34;;;;;;;46.17;25.17;;;;;;;0.75;86.35;95149.22;5059337;28;20024;-87
2020/12/13 01:34:00;;;;;;;46.30;27.13;;;;;;;0.70;86.32;95157.75;5059311;28;20032;-87
2020/12/13 01:36:25;;;;;;;52.80;28.42;;;;;;;0.65;85.67;95152.91;5059265;28;20036;-87
2020/12/13 01:38:53;;;;;;;47.03;27.10;;;;;;;1.30;86.39;95243.66;5059196;28;20439;-87
2020/12/13 01:41:20;;;;;;;48.10;27.77;;;;;;;1.33;85.89;95250.06;5059117;28;20021;-87
2020/12/13 01:44:05;;;;;;;61.60;29.67;;;;;;;1.29;86.69;95250.19;5059039;28;20381;-87
2020/12/13 01:46:33;;;;;;;49.17;28.20;;;;;;;0.81;86.41;95178.88;5058969;28;20053;-87
2020/12/13 01:49:03;;;;;;;56.67;28.90;;;;;;;0.96;86.30;95196.00;5058993;28;20086;-87
2020/12/13 01:54:28;;;;;;;57.22;30.38;;;;;;;0.76;86.55;95174.78;5051644;28;20425;-87
2020/12/13 01:56:56;;;;;;;54.53;27.83;;;;;;;0.68;86.14;95163.50;5058811;28;20097;-87
2020/12/13 01:59:24;;;;;;;47.22;25.00;;;;;;;0.81;85.95;95166.25;5058771;28;20108;-87
2020/12/13 02:01:56;;;;;;;40.50;24.58;;;;;;;0.87;85.71;95191.28;5058473;28;20078;-87
2020/12/13 02:04:22;;;;;;;44.42;25.42;;;;;;;0.79;86.00;95187.28;5058550;28;20024;-87
2020/12/13 02:06:52;;;;;;;36.35;24.65;;;;;;;1.19;86.49;95237.84;5058854;28;20063;-88
2020/12/13 02:09:18;;;;;;;47.05;25.77;;;;;;;0.89;86.02;95177.50;5058592;28;20027;-88
2020/12/13 02:11:43;;;;;;;44.03;25.25;;;;;;;0.89;85.91;95196.94;5058396;28;20102;-88
2020/12/13 02:14:09;;;;;;;49.80;27.13;;;;;;;0.60;85.65;95148.09;5058595;28;20090;-87
2020/12/13 02:16:35;;;;;;;47.47;25.98;;;;;;;0.61;85.36;95163.69;5058387;28;20046;-88
2020/12/13 02:19:00;;;;;;;68.35;29.95;;;;;;;0.73;85.20;95189.72;5058392;28;20305;-87
2020/12/13 02:21:26;;;;;;;40.15;25.60;;;;;;;0.57;86.56;95168.38;5058488;28;20028;-88
2020/12/13 02:23:51;;;;;;;51.30;27.35;;;;;;;0.55;85.92;95172.66;5058413;28;20333;-88
2020/12/13 02:26:17;;;;;;;53.15;28.23;;;;;;;0.71;85.58;95213.47;5058375;28;20139;-87
2020/12/13 02:28:43;;;;;;;48.70;26.40;;;;;;;0.60;85.63;95188.91;5058316;28;20425;-88
2020/12/13 02:31:11;;;;;;;53.00;27.70;;;;;;;0.95;86.07;95253.34;5058163;28;20021;-88
2020/12/13 02:33:36;;;;;;;49.65;27.00;;;;;;;0.96;86.52;95252.16;5058261;28;20025;-88
2020/12/13 02:36:04;;;;;;;65.35;31.33;;;;;;;0.54;86.11;95197.88;5058220;28;20074;-88
2020/12/13 02:38:31;;;;;;;49.60;26.73;;;;;;;0.98;86.16;95252.50;5058114;28;20029;-88
2020/12/13 02:40:57;;;;;;;53.28;26.20;;;;;;;0.33;86.71;95164.41;5058060;28;20029;-88
2020/12/13 02:43:23;;;;;;;43.53;25.70;;;;;;;0.51;86.83;95186.09;5057947;28;20121;-88
2020/12/13 02:45:48;;;;;;;40.47;24.95;;;;;;;1.02;87.18;95258.53;5058002;28;20093;-88
2020/12/13 02:48:14;;;;;;;41.35;24.65;;;;;;;0.69;86.52;95199.00;5058052;28;20059;-88
2020/12/13 02:50:39;;;;;;;42.75;24.08;;;;;;;0.72;86.64;95216.88;5057849;28;20090;-88
2020/12/13 02:53:05;;;;;;;42.28;24.98;;;;;;;1.05;86.75;95252.31;5057915;28;20025;-88
2020/12/13 02:55:31;;;;;;;47.00;24.77;;;;;;;0.40;86.54;95174.91;5057698;28;20025;-88
2020/12/13 02:57:56;;;;;;;44.28;26.58;;;;;;;0.37;87.11;95160.44;5057622;28;20025;-88
2020/12/13 03:00:21;;;;;;;44.85;25.88;;;;;;;0.34;87.40;95152.53;5057782;28;20020;-88
2020/12/13 03:02:47;;;;;;;73.70;27.73;;;;;;;0.40;86.56;95159.63;5057385;28;20049;-88
2020/12/13 03:05:12;;;;;;;54.35;26.25;;;;;;;0.36;86.99;95158.97;5057523;28;20025;-88
2020/12/13 03:07:38;;;;;;;52.35;26.08;;;;;;;0.56;86.68;95187.50;5057520;28;20069;-88
2020/12/13 03:10:03;;;;;;;43.17;23.90;;;;;;;0.49;86.51;95170.47;5057526;28;20017;-88
2020/12/13 03:12:29;;;;;;;41.45;23.70;;;;;;;0.65;86.56;95203.69;5057424;28;20079;-88
2020/12/13 03:14:55;;;;;;;36.70;20.67;;;;;;;0.94;86.33;95249.16;5057453;28;20023;-88
2020/12/13 03:17:21;;;;;;;31.40;20.40;;;;;;;0.45;86.15;95177.06;5057416;28;20104;-88
2020/12/13 03:19:46;;;;;;;32.28;20.17;;;;;;;0.49;86.48;95183.09;5058320;28;20060;-88
2020/12/13 03:22:12;;;;;;;32.58;19.30;;;;;;;0.71;86.10;95218.81;5057312;28;20029;-88
2020/12/13 03:24:38;;;;;;;35.88;19.15;;;;;;;0.50;86.15;95195.28;5056504;28;20030;-88
2020/12/13 03:27:05;;;;;;;38.20;22.17;;;;;;;0.87;86.36;95246.69;5057165;28;20071;-88
2020/12/13 03:29:30;;;;;;;36.50;23.13;;;;;;;0.72;86.82;95232.91;5057085;28;20017;-88
2020/12/13 03:31:56;;;;;;;35.17;22.23;;;;;;;0.62;86.89;95215.22;5057021;28;20104;-88
2020/12/13 03:34:21;;;;;;;33.08;21.60;;;;;;;0.44;87.08;95191.63;5056935;28;20029;-88
2020/12/13 03:36:47;;;;;;;35.42;23.05;;;;;;;0.94;86.48;95244.56;5056979;28;20127;-88
2020/12/13 03:39:12;;;;;;;31.75;21.92;;;;;;;0.93;85.14;95237.72;5056850;28;20024;-87
2020/12/13 03:41:38;;;;;;;31.13;20.65;;;;;;;1.15;84.50;95255.91;5056841;28;20091;-87
2020/12/13 03:44:03;;;;;;;31.60;20.35;;;;;;;0.87;83.50;95217.28;5056846;28;20171;-88
2020/12/13 03:46:29;;;;;;;31.63;20.30;;;;;;;1.10;83.83;95243.78;5056821;28;20024;-88
2020/12/13 03:49:45;;;;;;;28.92;19.95;;;;;;;1.57;82.70;95305.63;5056852;28;20025;-87
2020/12/13 03:52:10;;;;;;;30.30;19.52;;;;;;;1.31;82.00;95285.28;5056672;28;20083;-87
2020/12/13 03:54:35;;;;;;;28.40;17.67;;;;;;;0.85;83.13;95223.03;5056519;28;20025;-87
2020/12/13 03:57:01;;;;;;;26.27;17.88;;;;;;;0.86;83.19;95223.81;5056646;28;20112;-87
2020/12/13 03:59:26;;;;;;;26.30;18.10;;;;;;;1.03;83.39;95254.69;5056498;28;20024;-87
2020/12/13 04:01:52;;;;;;;28.63;18.55;;;;;;;0.92;82.43;95249.59;5056313;28;20072;-87
2020/12/13 04:04:17;;;;;;;25.45;17.25;;;;;;;1.03;83.17;95263.44;5056526;28;20025;-88
2020/12/13 04:06:42;;;;;;;27.88;18.80;;;;;;;1.04;82.48;95250.81;5056325;28;20029;-87
2020/12/13 04:09:08;;;;;;;29.52;19.25;;;;;;;0.94;83.52;95244.56;5056361;28;20375;-87
2020/12/13 04:11:33;;;;;;;30.92;19.50;;;;;;;0.48;83.47;95184.25;5056340;28;20036;-87
2020/12/13 04:13:58;;;;;;;32.92;20.05;;;;;;;0.89;84.19;95239.00;5056228;28;20480;-87
2020/12/13 04:16:24;;;;;;;31.75;20.35;;;;;;;0.91;83.74;95242.75;5056243;28;20108;-87
2020/12/13 04:18:49;;;;;;;32.40;20.67;;;;;;;0.98;83.72;95268.56;5056192;28;20025;-87
2020/12/13 04:21:15;;;;;;;34.97;21.98;;;;;;;0.80;83.73;95250.28;5056207;28;20025;-87
2020/12/13 04:23:40;;;;;;;35.90;21.35;;;;;;;0.66;84.89;95248.72;5056119;28;20028;-88
2020/12/13 04:26:05;;;;;;;48.58;25.95;;;;;;;0.49;84.42;95223.19;5055926;28;20024;-88
2020/12/13 04:28:31;;;;;;;42.90;25.25;;;;;;;0.74;84.71;95274.09;5056128;28;20021;-86
2020/12/13 04:30:56;;;;;;;50.30;27.95;;;;;;;0.73;84.64;95271.84;5056058;28;20025;-87
2020/12/13 04:33:22;;;;;;;58.45;29.05;;;;;;;0.76;84.93;95292.41;5056080;28;20025;-88
2020/12/13 04:35:47;;;;;;;46.30;25.05;;;;;;;0.38;85.55;95252.06;5055081;28;20017;-87
2020/12/13 04:38:12;;;;;;;40.97;25.27;;;;;;;0.54;85.92;95267.34;5055931;28;20298;-88
2020/12/13 04:40:38;;;;;;;40.60;25.30;;;;;;;0.30;85.80;95243.44;5055890;28;20115;-88
2020/12/13 04:43:03;;;;;;;55.13;27.98;;;;;;;0.48;85.74;95262.50;5055899;28;20025;-88
2020/12/13 04:45:29;;;;;;;53.88;27.50;;;;;;;0.32;85.59;95253.72;5055890;28;20029;-88
2020/12/13 04:48:08;;;;;;;64.50;29.15;;;;;;;0.76;86.67;95337.84;5055839;28;20021;-88
2020/12/13 04:50:36;;;;;;;43.58;26.33;;;;;;;0.83;86.16;95334.25;5055823;28;20459;-88
2020/12/13 04:53:07;;;;;;;53.78;30.77;;;;;;;0.35;86.07;95274.25;5055752;28;20124;-88
2020/12/13 04:55:56;;;;;;;51.40;29.42;;;;;;;0.63;86.63;95323.63;5055774;28;20021;-88
2020/12/13 04:58:23;;;;;;;47.08;27.35;;;;;;;0.16;86.22;95247.22;5056390;28;20021;-88
2020/12/13 05:01:00;;;;;;;45.55;25.13;;;;;;;0.22;85.51;95256.22;5055773;28;20033;-88
2020/12/13 05:03:26;;;;;;;61.38;27.83;;;;;;;0.67;85.89;95343.00;5055509;28;20049;-88
2020/12/13 05:05:58;;;;;;;53.70;33.70;;;;;;;0.63;86.50;95350.34;5055579;28;20075;-88
2020/12/13 05:08:27;;;;;;;44.13;25.90;;;;;;;0.23;86.05;95294.38;5055800;28;20421;-88
2020/12/13 05:10:52;;;;;;;39.03;24.88;;;;;;;0.22;86.29;95298.22;5055700;28;20025;-88
2020/12/13 05:13:18;;;;;;;35.05;23.25;;;;;;;0.38;86.31;95308.16;5055669;28;20472;-88
2020/12/13 05:15:43;;;;;;;42.88;24.77;;;;;;;0.34;86.54;95302.16;5055735;28;20044;-88
2020/12/13 05:18:09;;;;;;;44.30;25.92;;;;;;;0.69;86.51;95346.78;5055534;28;20083;-88
2020/12/13 05:20:35;;;;;;;39.55;23.55;;;;;;;0.26;86.17;95288.94;5055598;28;20021;-88
2020/12/13 05:23:01;;;;;;;36.55;23.65;;;;;;;0.40;85.62;95295.88;5055584;28;20036;-88
2020/12/13 05:25:38;;;;;;;42.58;25.25;;;;;;;0.81;85.21;95368.69;5055507;28;20041;-88
2020/12/13 05:28:06;;;;;;;41.33;24.85;;;;;;;0.75;86.17;95369.19;5055488;28;20021;-88
2020/12/13 05:30:39;;;;;;;40.22;24.48;;;;;;;0.78;85.70;95373.69;5055364;28;20294;-88
2020/12/13 05:33:15;;;;;;;39.13;24.30;;;;;;;0.82;86.47;95368.25;5055551;28;20116;-88
2020/12/13 05:35:40;;;;;;;37.55;23.83;;;;;;;0.10;85.45;95264.88;5055452;28;20025;-88
2020/12/13 05:38:13;;;;;;;38.40;23.83;;;;;;;0.18;85.97;95281.50;5055470;28;20036;-88
2020/12/13 05:40:40;;;;;;;36.15;23.48;;;;;;;0.82;85.16;95378.94;5055398;28;20025;-88
2020/12/13 05:43:17;;;;;;;40.92;24.20;;;;;;;0.23;85.92;95318.41;5055466;28;20134;-88
2020/12/13 05:53:24;;;;;;;37.20;22.08;;;;;;;0.13;85.21;95304.13;5059942;28;20044;-88
2020/12/13 05:55:53;;;;;;;37.15;24.55;;;;;;;0.35;86.00;95344.47;5058857;28;20405;-87
2020/12/13 05:58:19;;;;;;;38.40;22.92;;;;;;;0.06;85.89;95300.84;5058865;28;20305;-88
2020/12/13 06:00:45;;;;;;;38.72;23.15;;;;;;;0.05;85.47;95288.66;5058777;28;20021;-88
2020/12/13 06:03:15;;;;;;;37.25;22.92;;;;;;;0.69;86.32;95391.44;5092268;28;20060;-88
2020/12/13 06:05:43;;;;;;;41.03;24.05;;;;;;;0.69;86.68;95386.09;5058825;28;20017;-88
2020/12/13 06:08:15;;;;;;;42.25;24.30;;;;;;;0.51;86.02;95391.84;5058701;28;20113;-88
2020/12/13 06:10:43;;;;;;;40.10;24.35;;;;;;;0.59;86.94;95387.88;5058719;28;20051;-88
2020/12/13 06:13:17;;;;;;;44.55;24.35;;;;;;;0.03;86.53;95296.31;5058601;28;20432;-88
2020/12/13 06:15:46;;;;;;;40.63;23.65;;;;;;;0.61;85.62;95395.47;5058544;28;20325;-87
2020/12/13 06:18:12;;;;;;;43.95;23.90;;;;;;;-0.06;85.95;95310.97;5058912;28;20035;-88
2020/12/13 06:20:41;;;;;;;41.63;24.08;;;;;;;0.63;86.45;95401.13;5058470;28;20028;-88
2020/12/13 06:23:07;;;;;;;43.53;23.52;;;;;;;0.15;85.80;95336.50;5058372;28;20310;-88
2020/12/13 06:25:33;;;;;;;47.88;25.30;;;;;;;0.12;86.21;95331.25;5058256;28;20028;-88
2020/12/13 06:27:59;;;;;;;44.30;24.77;;;;;;;0.33;86.28;95365.53;5058252;28;20408;-88
2020/12/13 06:30:26;;;;;;;44.25;25.02;;;;;;;0.60;86.61;95410.00;5058177;28;20056;-88
2020/12/13 06:32:52;;;;;;;41.05;23.52;;;;;;;0.53;86.72;95378.81;5058160;28;20071;-88
2020/12/13 06:35:19;;;;;;;38.17;23.63;;;;;;;0.50;86.61;95356.34;5058224;28;20013;-87
2020/12/13 06:37:45;;;;;;;37.20;22.35;;;;;;;0.56;85.41;95348.59;5058313;28;20352;-87
2020/12/13 06:40:21;;;;;;;34.28;21.25;;;;;;;0.95;85.47;95413.78;5058059;28;20021;-87
2020/12/13 06:42:50;;;;;;;34.47;21.25;;;;;;;1.02;84.79;95421.66;5058405;28;20379;-88
2020/12/13 06:45:17;;;;;;;37.47;20.77;;;;;;;0.93;85.35;95426.84;5058311;28;20056;-88
2020/12/13 06:47:45;;;;;;;43.45;22.25;;;;;;;0.88;84.96;95425.41;5057948;28;20021;-88
2020/12/13 06:50:24;;;;;;;34.00;21.35;;;;;;;0.23;85.21;95329.09;5057814;28;20017;-87
2020/12/13 06:52:51;;;;;;;39.45;22.63;;;;;;;0.83;85.70;95433.94;5057843;28;20025;-88
2020/12/13 06:55:17;;;;;;;41.17;22.30;;;;;;;0.87;85.32;95431.19;5057712;28;20025;-88
2020/12/13 06:57:46;;;;;;;37.70;23.20;;;;;;;0.74;85.95;95423.03;5057506;28;20040;-89
2020/12/13 07:00:56;;;;;;;39.35;22.70;;;;;;;0.81;85.87;95438.94;5057222;28;20024;-88
2020/12/13 07:03:26;;;;;;;36.97;22.50;;;;;;;0.67;85.42;95415.19;5057475;28;20386;-88
2020/12/13 07:05:58;;;;;;;37.70;23.08;;;;;;;0.27;85.86;95367.19;5057716;28;20027;-88
2020/12/13 07:08:24;;;;;;;36.15;21.20;;;;;;;0.78;85.15;95439.75;5057621;28;20024;-88
2020/12/13 07:10:52;;;;;;;37.45;21.13;;;;;;;0.06;85.05;95341.66;5057427;28;20021;-88
2020/12/13 07:13:22;;;;;;;41.55;21.98;;;;;;;0.03;85.67;95361.16;5057313;28;20409;-88
2020/12/13 07:15:59;;;;;;;33.78;21.40;;;;;;;0.09;85.49;95370.19;5048882;28;20048;-88
2020/12/13 07:18:25;;;;;;;34.70;21.63;;;;;;;0.21;85.90;95380.25;5053413;28;20107;-88
2020/12/13 07:20:51;;;;;;;37.70;21.15;;;;;;;0.05;85.72;95369.50;5057298;28;20063;-88
2020/12/13 07:23:16;;;;;;;34.15;20.58;;;;;;;0.20;85.74;95384.09;5057266;28;20028;-89
2020/12/13 07:25:42;;;;;;;35.75;20.73;;;;;;;0.16;85.53;95393.31;5057134;28;20029;-87
2020/12/13 07:28:07;;;;;;;35.83;21.15;;;;;;;0.37;86.03;95398.22;5057004;28;20027;-87
2020/12/13 07:30:37;;;;;;;33.28;20.98;;;;;;;0.67;85.40;95457.94;5057127;28;20028;-88
2020/12/13 07:33:04;;;;;;;36.22;22.52;;;;;;;0.28;85.65;95392.72;5057932;28;20082;-88
2020/12/13 07:35:30;;;;;;;34.83;22.75;;;;;;;0.41;86.45;95420.28;5056919;28;20064;-88
2020/12/13 07:37:56;;;;;;;34.30;21.60;;;;;;;0.75;85.78;95457.41;5056994;28;20044;-88
2020/12/13 07:40:22;;;;;;;33.70;22.05;;;;;;;0.42;86.13;95418.38;5056986;28;20123;-88
2020/12/13 07:42:58;;;;;;;40.92;22.50;;;;;;;0.33;85.32;95418.94;5056659;28;20365;-89
2020/12/13 07:45:24;;;;;;;34.05;21.35;;;;;;;0.40;85.44;95434.81;5056949;28;20036;-88
2020/12/13 07:48:00;;;;;;;31.27;20.45;;;;;;;0.72;85.52;95473.50;5058645;28;20021;-88
2020/12/13 07:50:53;;;;;;;32.38;19.25;;;;;;;0.72;84.95;95479.59;5058771;28;20074;-88
2020/12/13 07:53:26;;;;;;;31.33;20.25;;;;;;;0.48;85.78;95470.16;5056636;28;20029;-88
2020/12/13 07:55:51;;;;;;;35.55;20.00;;;;;;;0.10;85.89;95427.03;5056594;28;20028;-88
2020/12/13 07:58:20;;;;;;;34.63;20.48;;;;;;;0.29;85.45;95450.31;5056581;28;20028;-89
2020/12/13 08:00:46;;;;;;;36.05;21.52;;;;;;;0.53;85.81;95491.06;5056784;28;20036;-88
2020/12/13 08:03:12;;;;;;;37.45;21.55;;;;;;;0.22;86.34;95437.84;5056269;28;20041;-87
2020/12/13 08:05:41;;;;;;;32.95;19.95;;;;;;;0.20;86.13;95434.84;5056369;28;20107;-88
2020/12/13 08:08:07;;;;;;;31.25;19.38;;;;;;;0.64;85.76;95494.28;5056525;28;20033;-88
2020/12/13 08:10:33;;;;;;;32.95;19.55;;;;;;;0.23;85.53;95431.34;5056221;28;20028;-89
2020/12/13 08:12:59;;;;;;;30.90;20.42;;;;;;;0.46;84.98;95459.13;5056134;28;20409;-88
2020/12/13 08:15:25;;;;;;;33.00;19.98;;;;;;;0.48;86.16;95462.91;5056426;28;20029;-87
2020/12/13 08:18:10;;;;;;;32.85;20.48;;;;;;;0.28;84.94;95437.38;5057110;28;20037;-87
2020/12/13 08:20:40;;;;;;;28.50;17.88;;;;;;;0.28;85.41;95446.16;5056215;28;20523;-88
2020/12/13 08:23:12;;;;;;;32.67;19.15;;;;;;;0.27;84.13;95455.31;5056358;28;20032;-88
2020/12/13 08:25:38;;;;;;;27.95;18.83;;;;;;;0.20;85.75;95434.09;5055849;28;20078;-87
2020/12/13 08:28:05;;;;;;;33.00;19.08;;;;;;;0.48;85.25;95456.81;5056012;28;20368;-88
2020/12/13 08:30:31;;;;;;;29.30;17.13;;;;;;;0.37;85.10;95451.66;5056000;28;20302;-88
2020/12/13 08:32:58;;;;;;;29.55;17.58;;;;;;;0.83;84.95;95498.09;5056006;28;20059;-88
2020/12/13 08:35:24;;;;;;;30.55;18.05;;;;;;;0.07;85.19;95412.59;5038996;28;20099;-87
2020/12/13 08:38:01;;;;;;;30.15;17.92;;;;;;;0.26;85.28;95445.78;5036181;28;20021;-88
2020/12/13 08:40:46;;;;;;;26.48;17.20;;;;;;;0.75;85.19;95513.53;5036030;28;20429;-87
2020/12/13 08:43:17;;;;;;;27.90;18.63;;;;;;;0.28;84.58;95459.50;5035958;28;20018;-89
2020/12/13 08:45:52;;;;;;;32.60;19.67;;;;;;;0.24;85.15;95450.78;5036048;28;20036;-88
2020/12/13 08:48:24;;;;;;;32.83;19.23;;;;;;;0.43;85.09;95473.34;5035948;28;20035;-88
2020/12/13 08:51:06;;;;;;;31.08;18.17;;;;;;;0.67;85.30;95514.09;5036051;28;20029;-90
2020/12/13 08:53:32;;;;;;;28.58;18.15;;;;;;;0.70;85.10;95514.03;5047919;28;20029;-90
2020/12/13 08:56:03;;;;;;;32.10;19.20;;;;;;;0.66;84.80;95525.94;5055582;28;20028;-90
2020/12/13 08:58:29;;;;;;;28.05;18.63;;;;;;;0.36;85.64;95468.13;5055960;28;20033;-88
2020/12/13 09:01:05;;;;;;;34.63;20.67;;;;;;;0.32;85.45;95480.78;5055626;28;20444;-90
2020/12/13 09:03:31;;;;;;;35.28;20.05;;;;;;;0.20;85.48;95480.25;5055935;28;20433;-90
2020/12/13 09:05:56;;;;;;;32.58;20.10;;;;;;;0.64;85.50;95506.88;5055505;28;20035;-89
2020/12/13 09:08:23;;;;;;;35.17;20.85;;;;;;;0.72;86.18;95518.94;5055810;28;20027;-89
2020/12/13 09:10:49;;;;;;;34.20;20.67;;;;;;;0.19;85.76;95443.25;5055911;28;20116;-89
2020/12/13 09:13:14;;;;;;;37.33;22.33;;;;;;;0.23;84.82;95442.03;5055792;28;20074;-89
2020/12/13 09:15:40;;;;;;;39.08;22.23;;;;;;;0.53;85.71;95472.34;5056038;28;20112;-89
2020/12/13 09:18:06;;;;;;;35.50;23.02;;;;;;;0.46;85.22;95451.88;5055947;28;20036;-89
2020/12/13 09:20:34;;;;;;;35.65;21.95;;;;;;;0.74;85.29;95509.34;5055258;28;20033;-90
2020/12/13 09:23:20;;;;;;;37.85;22.58;;;;;;;0.81;85.14;95521.81;5058689;28;20047;-88
2020/12/13 09:25:47;;;;;;;34.92;21.27;;;;;;;0.53;85.41;95472.34;5056115;28;20425;-90
2020/12/13 09:28:14;;;;;;;35.08;22.33;;;;;;;0.53;85.26;95469.69;5059397;28;20025;-88
2020/12/13 09:30:42;;;;;;;39.92;23.48;;;;;;;0.44;85.63;95450.78;5057094;28;20090;-90
2020/12/13 09:33:08;;;;;;;33.60;22.00;;;;;;;0.60;85.46;95472.22;5060813;28;20024;-90
2020/12/13 09:35:34;;;;;;;37.60;21.85;;;;;;;0.53;84.77;95450.97;5059307;28;20104;-88
2020/12/13 09:38:04;;;;;;;35.70;22.65;;;;;;;0.42;85.18;95437.06;5065084;28;20117;-88
2020/12/13 09:40:32;;;;;;;40.75;23.88;;;;;;;0.61;85.31;95468.38;5059018;28;20024;-90
2020/12/13 09:42:59;;;;;;;33.50;21.80;;;;;;;0.52;84.61;95463.59;5058822;28;20037;-89
2020/12/13 09:45:25;;;;;;;33.33;21.63;;;;;;;0.99;84.74;95521.44;5059054;28;20372;-88
2020/12/13 09:47:55;;;;;;;37.33;22.35;;;;;;;1.02;84.86;95518.72;5059209;28;20021;-89
2020/12/13 09:50:22;;;;;;;37.85;22.40;;;;;;;1.00;84.77;95518.34;5059307;28;20056;-89
2020/12/13 09:52:47;;;;;;;44.58;23.10;;;;;;;0.57;84.95;95456.25;5058965;28;20025;-89
2020/12/13 09:55:13;;;;;;;36.42;22.23;;;;;;;0.64;85.05;95469.47;5058979;28;20071;-88
2020/12/13 09:57:38;;;;;;;39.55;22.88;;;;;;;0.76;85.35;95476.88;5058795;28;20313;-88
2020/12/13 10:00:05;;;;;;;41.92;24.77;;;;;;;1.14;84.78;95525.31;5059068;28;20040;-88
2020/12/13 10:02:31;;;;;;;38.10;23.08;;;;;;;0.77;85.38;95473.75;5058664;28;20041;-89
2020/12/13 10:04:56;;;;;;;39.80;23.38;;;;;;;0.59;84.91;95441.31;5058761;28;20044;-87
2020/12/13 10:08:55;;;;;;;37.22;24.13;;;;;;;0.52;85.08;95433.44;5058871;28;20420;-88
2020/12/13 10:10:16;;;;;;;38.72;23.60;;;;;;;0.78;84.84;95469.16;5059704;28;20028;-89
2020/12/13 10:12:42;;;;;;;41.35;25.23;;;;;;;1.16;85.07;95517.63;5058643;28;20025;-88
2020/12/13 10:15:10;;;;;;;41.15;24.88;;;;;;;0.85;84.67;95469.00;5058553;28;20401;-88
2020/12/13 10:17:35;;;;;;;37.65;22.73;;;;;;;0.71;84.53;95451.38;5058495;28;20060;-89
2020/12/13 10:23:23;;;;;;;34.53;23.13;;;;;;;0.57;84.95;95440.97;5060037;28;20044;-89
2020/12/13 10:25:48;;;;;;;36.47;23.13;;;;;;;0.67;85.59;95444.59;5058555;28;20321;-89
2020/12/13 10:28:13;;;;;;;38.97;23.27;;;;;;;0.56;84.66;95436.78;5092161;28;20479;-89
2020/12/13 10:30:39;;;;;;;33.33;21.50;;;;;;;1.11;85.62;95520.03;5058458;28;20025;-89
2020/12/13 10:33:04;;;;;;;37.78;22.08;;;;;;;1.03;85.27;95514.09;5058369;28;20020;-89
2020/12/13 10:35:30;;;;;;;36.58;22.00;;;;;;;0.52;84.70;95436.84;5058472;28;20075;-90
2020/12/13 10:37:55;;;;;;;36.33;22.52;;;;;;;0.79;85.41;95470.66;5058282;28;20029;-89
2020/12/13 10:40:21;;;;;;;33.40;22.55;;;;;;;0.83;85.67;95470.59;5058225;28;20404;-89
2020/12/13 10:42:46;;;;;;;33.20;21.00;;;;;;;0.85;84.70;95465.59;5058184;28;20041;-89
2020/12/13 10:45:12;;;;;;;36.63;22.13;;;;;;;0.48;84.82;95422.84;5058236;28;20056;-91
2020/12/13 10:47:37;;;;;;;35.47;21.15;;;;;;;0.84;84.59;95477.47;5058304;28;20028;-89
2020/12/13 10:50:03;;;;;;;34.60;21.58;;;;;;;0.89;84.95;95458.25;5058080;28;20316;-89
2020/12/13 10:52:28;;;;;;;37.60;22.55;;;;;;;0.60;84.55;95418.78;5057983;28;20417;-89
2020/12/13 10:54:53;;;;;;;40.40;22.98;;;;;;;1.10;84.90;95492.53;5057940;28;20025;-89
2020/12/13 10:57:19;;;;;;;36.03;21.88;;;;;;;1.12;85.14;95500.94;5058367;28;20029;-91
2020/12/13 10:59:45;;;;;;;42.97;24.55;;;;;;;0.97;85.67;95478.34;5056143;28;20116;-90
2020/12/13 11:02:10;;;;;;;41.80;24.48;;;;;;;0.73;85.34;95438.31;5057818;28;20040;-90
2020/12/13 11:04:35;;;;;;;39.47;24.48;;;;;;;0.49;85.03;95426.25;5057863;28;20032;-89
2020/12/13 11:07:01;;;;;;;37.08;22.65;;;;;;;0.55;85.09;95439.88;5057639;28;20047;-90
2020/12/13 11:09:26;;;;;;;37.80;22.80;;;;;;;0.35;85.19;95397.91;5057663;28;20060;-91
2020/12/13 11:11:52;;;;;;;34.80;22.25;;;;;;;1.14;85.56;95505.84;5057838;28;20064;-91
2020/12/13 11:14:17;;;;;;;34.88;21.77;;;;;;;0.75;85.09;95425.31;5058667;28;20044;-90
2020/12/13 11:16:47;;;;;;;34.47;22.05;;;;;;;1.23;85.62;95500.69;5057621;28;20094;-91
2020/12/13 11:19:12;;;;;;;38.00;22.95;;;;;;;0.79;84.32;95458.06;5057549;28;20025;-90
2020/12/13 11:21:43;;;;;;;36.50;22.50;;;;;;;0.82;85.08;95461.09;5057484;28;20036;-90
2020/12/13 11:24:09;;;;;;;35.15;22.70;;;;;;;0.47;84.58;95407.94;5057471;28;20028;-90
2020/12/13 11:26:34;;;;;;;36.45;21.60;;;;;;;0.63;85.77;95412.56;5057391;28;20025;-89
2020/12/13 11:28:59;;;;;;;37.25;21.55;;;;;;;0.75;85.27;95430.66;5057336;28;20021;-89
2020/12/13 11:31:25;;;;;;;40.10;24.42;;;;;;;0.55;84.53;95421.94;5057309;28;20500;-89
2020/12/13 11:33:50;;;;;;;41.80;25.17;;;;;;;0.76;84.83;95456.22;5051983;28;20096;-88
2020/12/13 11:36:16;;;;;;;40.38;23.60;;;;;;;0.89;84.99;95468.94;5058902;28;20032;-88
2020/12/13 11:38:41;;;;;;;38.50;25.05;;;;;;;0.68;85.29;95432.72;5059957;28;20404;-88
2020/12/13 11:41:06;;;;;;;37.38;24.65;;;;;;;0.81;85.03;95454.25;5057896;28;20056;-89
2020/12/13 11:43:32;;;;;;;40.03;24.00;;;;;;;1.02;85.02;95470.56;5061136;28;20025;-89